Weather at Wynne Municipal Airport [CLOSED]

Public forecast

Using degrees Fahrenheit for public forecast. Weather courtesy of forecast.io.

Closest aviation weather report (METAR) to Wynne Municipal Airport

Closest report is West Memphis Municipal Airport, 26.5 nm (49.1 km) ESE.

2023/01/26 20:53 (retrieved 26 minutes ago)

KAWM 262053Z AUTO 29008G14KT 10SM CLR 05/M04 A3023 RMK AO2 SLP239 T00501039 56008

Closest aviation forecast (TAF) to Wynne Municipal Airport

Closest forecast is Jonesboro Municipal Airport, 36.5 nm (67.5 km) N.

2023/01/26 18:36 (retrieved 3 hours ago)

TAF KJBR 261734Z 2618/2718 27012G18KT P6SM FEW040 SCT100 FM270000 24005KT P6SM SKC FM270400 20006KT P6SM SCT100 FM271500 22015G25KT P6SM FEW250